createdAt,value
2018-07-19T00:00:46.480Z,1013.76
2018-07-19T00:01:46.231Z,1013.80
2018-07-19T00:03:44.710Z,1013.78
2018-07-19T00:04:44.187Z,1013.77
2018-07-19T00:06:41.582Z,1013.79
2018-07-19T00:07:40.654Z,1013.76
2018-07-19T00:09:38.262Z,1013.76
2018-07-19T00:10:38.315Z,1013.73
2018-07-19T00:12:34.201Z,1013.73
2018-07-19T00:13:34.209Z,1013.76
2018-07-19T00:15:30.191Z,1013.79
2018-07-19T00:16:30.144Z,1013.77
2018-07-19T00:18:26.129Z,1013.74
2018-07-19T00:19:26.606Z,1013.77
2018-07-19T00:21:24.085Z,1013.76
2018-07-19T00:22:24.069Z,1013.74
2018-07-19T00:24:20.063Z,1013.75
2018-07-19T00:25:20.017Z,1013.74
2018-07-19T00:27:16.961Z,1013.80
2018-07-19T00:28:16.990Z,1013.78
2018-07-19T00:30:15.477Z,1013.77
2018-07-19T00:31:14.937Z,1013.80
2018-07-19T00:33:11.892Z,1013.79
2018-07-19T00:34:10.878Z,1013.81
2018-07-19T00:36:07.848Z,1013.78
2018-07-19T00:37:07.849Z,1013.76
2018-07-19T00:39:03.810Z,1013.76
2018-07-19T00:40:03.741Z,1013.75
2018-07-19T00:41:58.756Z,1013.71
2018-07-19T00:42:59.266Z,1013.75
2018-07-19T00:44:55.730Z,1013.71
2018-07-19T00:45:54.700Z,1013.74
2018-07-19T00:47:50.656Z,1013.72
2018-07-19T00:48:50.626Z,1013.71
2018-07-19T00:50:48.085Z,1013.70
2018-07-19T00:51:46.576Z,1013.72
2018-07-19T00:53:43.550Z,1013.72
2018-07-19T00:54:42.551Z,1013.69
2018-07-19T00:56:41.015Z,1013.71
2018-07-19T00:57:40.672Z,1013.72
2018-07-19T00:59:36.706Z,1013.67
2018-07-19T01:00:38.139Z,1013.72
2018-07-19T01:02:33.127Z,1013.70
2018-07-19T01:03:33.088Z,1013.67
2018-07-19T01:05:29.530Z,1013.66
2018-07-19T01:06:29.036Z,1013.68
2018-07-19T01:08:24.421Z,1013.69
2018-07-19T01:09:24.439Z,1013.67
2018-07-19T01:11:20.923Z,1013.63
2018-07-19T01:12:20.414Z,1013.67
2018-07-19T01:14:17.352Z,1013.70
2018-07-19T01:15:16.348Z,1013.71
2018-07-19T01:17:12.315Z,1013.68
2018-07-19T01:18:12.808Z,1013.64
2018-07-19T01:20:07.753Z,1013.66
2018-07-19T01:21:06.753Z,1013.66
2018-07-19T01:23:01.718Z,1013.64
2018-07-19T01:24:01.189Z,1013.65
2018-07-19T01:25:56.158Z,1013.64
2018-07-19T01:26:56.148Z,1013.64
2018-07-19T01:28:53.024Z,1013.60
2018-07-19T01:29:51.582Z,1013.60
2018-07-19T01:31:46.060Z,1013.64
2018-07-19T01:32:46.045Z,1013.58
2018-07-19T01:34:40.524Z,1013.55
2018-07-19T01:35:40.506Z,1013.58
2018-07-19T01:37:38.461Z,1013.57
2018-07-19T01:38:36.459Z,1013.61
2018-07-19T01:40:30.938Z,1013.58
2018-07-19T01:41:30.942Z,1013.60
2018-07-19T01:43:26.915Z,1013.61
2018-07-19T01:44:26.889Z,1013.60
2018-07-19T01:46:23.849Z,1013.62
2018-07-19T01:47:23.356Z,1013.59
2018-07-19T01:49:18.814Z,1013.68
2018-07-19T01:50:18.798Z,1013.71
2018-07-19T01:52:14.756Z,1013.71
2018-07-19T01:53:13.265Z,1013.74
2018-07-19T01:55:11.336Z,1013.76
2018-07-19T01:56:12.212Z,1013.76
2018-07-19T01:58:07.313Z,1013.76
2018-07-19T01:59:07.313Z,1013.75
2018-07-19T02:01:03.790Z,1013.71
2018-07-19T02:02:03.764Z,1013.72
2018-07-19T02:03:59.741Z,1013.70
2018-07-19T02:04:59.221Z,1013.70
2018-07-19T02:06:54.180Z,1013.72
2018-07-19T02:07:53.655Z,1013.73
2018-07-19T02:09:50.118Z,1013.72
2018-07-19T02:10:50.116Z,1013.75
2018-07-19T02:12:46.080Z,1013.72
2018-07-19T02:13:46.061Z,1013.74
2018-07-19T02:15:41.478Z,1013.74
2018-07-19T02:16:41.496Z,1013.75
2018-07-19T02:18:38.943Z,1013.74
2018-07-19T02:19:37.432Z,1013.78
2018-07-19T02:21:33.419Z,1013.77
2018-07-19T02:22:33.383Z,1013.81
2018-07-19T02:24:28.860Z,1013.78
2018-07-19T02:25:28.362Z,1013.81
2018-07-19T02:27:21.813Z,1013.87
2018-07-19T02:28:21.325Z,1013.86
2018-07-19T02:30:17.776Z,1013.84
2018-07-19T02:31:17.275Z,1013.87
2018-07-19T02:33:11.713Z,1013.88
2018-07-19T02:34:11.724Z,1013.89
2018-07-19T02:36:10.195Z,1013.91
2018-07-19T02:37:09.719Z,1013.90
2018-07-19T02:39:06.659Z,1013.87
2018-07-19T02:40:05.645Z,1013.85
2018-07-19T02:42:01.612Z,1013.80
2018-07-19T02:43:01.614Z,1013.79
2018-07-19T02:45:00.578Z,1013.79
2018-07-19T02:46:00.570Z,1013.75
2018-07-19T02:47:54.150Z,1013.76
2018-07-19T02:48:54.146Z,1013.76
2018-07-19T02:50:50.605Z,1013.73
2018-07-19T02:51:50.095Z,1013.77
2018-07-19T02:53:46.550Z,1013.76
2018-07-19T02:54:46.047Z,1013.75
2018-07-19T02:56:42.505Z,1013.75
2018-07-19T02:57:42.015Z,1013.71
2018-07-19T02:59:37.960Z,1013.70
2018-07-19T03:00:37.962Z,1013.71
2018-07-19T03:02:34.424Z,1013.71
2018-07-19T03:03:33.917Z,1013.70
2018-07-19T03:05:29.900Z,1013.71
2018-07-19T03:06:29.871Z,1013.73
2018-07-19T03:08:26.793Z,1013.74
2018-07-19T03:09:26.807Z,1013.72
2018-07-19T03:11:22.271Z,1013.75
2018-07-19T03:12:21.745Z,1013.74
2018-07-19T03:14:19.213Z,1013.75
2018-07-19T03:15:17.717Z,1013.72
2018-07-19T03:17:14.172Z,1013.75
2018-07-19T03:18:12.239Z,1013.81
2018-07-19T03:20:08.208Z,1013.84
2018-07-19T03:21:08.202Z,1013.87
2018-07-19T03:23:04.169Z,1013.91
2018-07-19T03:24:04.665Z,1013.90
2018-07-19T03:26:00.114Z,1013.92
2018-07-19T03:27:00.109Z,1013.92
2018-07-19T03:28:57.065Z,1013.94
2018-07-19T03:29:56.044Z,1013.93
2018-07-19T03:31:53.016Z,1013.88
2018-07-19T03:32:52.023Z,1013.88
2018-07-19T03:34:46.974Z,1013.86
2018-07-19T03:35:46.966Z,1013.86
2018-07-19T03:37:43.374Z,1013.83
2018-07-19T03:38:42.395Z,1013.80
2018-07-19T03:40:38.367Z,1013.84
2018-07-19T03:41:39.340Z,1013.84
2018-07-19T03:43:34.831Z,1013.85
2018-07-19T03:44:34.832Z,1013.88
2018-07-19T03:46:28.747Z,1013.87
2018-07-19T03:47:28.746Z,1013.91
2018-07-19T03:49:25.705Z,1013.86
2018-07-19T03:50:25.272Z,1013.85
2018-07-19T03:52:20.170Z,1013.86
2018-07-19T03:53:19.171Z,1013.86
2018-07-19T03:55:14.125Z,1013.85
2018-07-19T03:56:13.595Z,1013.90
2018-07-19T03:58:08.069Z,1013.84
2018-07-19T03:59:08.036Z,1013.82
2018-07-19T04:01:03.989Z,1013.80
2018-07-19T04:02:03.980Z,1013.82
2018-07-19T04:04:00.469Z,1013.84
2018-07-19T04:04:59.967Z,1013.83
2018-07-19T04:06:55.941Z,1013.80
2018-07-19T04:07:56.417Z,1013.79
2018-07-19T04:09:51.895Z,1013.79
2018-07-19T04:10:51.885Z,1013.78
2018-07-19T04:12:47.862Z,1013.77
2018-07-19T04:13:47.848Z,1013.77
2018-07-19T04:15:43.779Z,1013.80
2018-07-19T04:16:43.777Z,1013.85
2018-07-19T04:18:38.238Z,1013.80
2018-07-19T04:19:38.263Z,1013.84
2018-07-19T04:21:34.177Z,1013.86
2018-07-19T04:22:34.202Z,1013.85
2018-07-19T04:24:30.170Z,1013.86
2018-07-19T04:25:30.148Z,1013.91
2018-07-19T04:27:27.104Z,1013.86
2018-07-19T04:28:26.093Z,1013.87
2018-07-19T04:30:23.045Z,1013.90
2018-07-19T04:31:22.071Z,1013.86
2018-07-19T04:33:16.533Z,1013.87
2018-07-19T04:34:16.496Z,1013.85
2018-07-19T04:36:12.951Z,1013.85
2018-07-19T04:37:12.471Z,1013.85
2018-07-19T04:39:08.427Z,1013.79
2018-07-19T04:40:08.394Z,1013.79
2018-07-19T04:42:04.861Z,1013.80
2018-07-19T04:43:04.360Z,1013.76
2018-07-19T04:45:01.325Z,1013.78
2018-07-19T04:46:00.821Z,1013.78
2018-07-19T04:47:56.776Z,1013.84
2018-07-19T04:48:56.250Z,1013.84
2018-07-19T04:50:52.228Z,1013.80
2018-07-19T04:51:53.215Z,1013.91
2018-07-19T04:53:48.185Z,1013.89
2018-07-19T04:54:48.152Z,1013.91
2018-07-19T04:56:41.619Z,1013.94
2018-07-19T04:57:41.602Z,1013.90
2018-07-19T04:59:38.064Z,1013.94
2018-07-19T05:00:37.589Z,1013.97
2018-07-19T05:02:33.519Z,1014.01
2018-07-19T05:03:33.520Z,1014.05
2018-07-19T05:05:30.001Z,1014.07
2018-07-19T05:06:29.456Z,1014.12
2018-07-19T05:08:25.432Z,1014.10
2018-07-19T05:09:26.409Z,1014.08
2018-07-19T05:11:22.866Z,1014.08
2018-07-19T05:12:21.359Z,1014.08
2018-07-19T05:14:17.324Z,1014.03
2018-07-19T05:15:17.353Z,1014.06
2018-07-19T05:17:11.798Z,1014.07
2018-07-19T05:18:11.902Z,1014.02
2018-07-19T05:20:08.746Z,1014.05
2018-07-19T05:21:07.776Z,1014.05
2018-07-19T05:23:04.760Z,1014.04
2018-07-19T05:24:03.766Z,1014.05
2018-07-19T05:25:59.724Z,1014.03
2018-07-19T05:27:00.644Z,1014.05
2018-07-19T05:28:57.808Z,1014.02
2018-07-19T05:29:57.815Z,1014.04
2018-07-19T05:31:53.796Z,1014.05
2018-07-19T05:32:53.801Z,1014.06
2018-07-19T05:34:49.177Z,1014.12
2018-07-19T05:35:48.751Z,1014.10
2018-07-19T05:37:44.681Z,1014.11
2018-07-19T05:38:44.718Z,1014.07
2018-07-19T05:40:40.129Z,1014.09
2018-07-19T05:41:41.069Z,1014.12
2018-07-19T05:43:34.607Z,1014.10
2018-07-19T05:44:34.615Z,1014.10
2018-07-19T05:46:30.044Z,1014.13
2018-07-19T05:47:29.053Z,1014.10
2018-07-19T05:49:24.016Z,1014.09
2018-07-19T05:50:24.019Z,1014.12
2018-07-19T05:52:18.976Z,1014.09
2018-07-19T05:53:18.960Z,1014.09
2018-07-19T05:55:13.455Z,1014.12
2018-07-19T05:56:12.413Z,1014.07
2018-07-19T05:58:08.937Z,1014.11
2018-07-19T05:59:08.377Z,1014.10
2018-07-19T06:01:04.840Z,1014.13
2018-07-19T06:02:04.335Z,1014.15
2018-07-19T06:04:00.289Z,1014.11
2018-07-19T06:05:00.810Z,1014.10
2018-07-19T06:06:56.269Z,1014.10
2018-07-19T06:07:56.767Z,1014.12
2018-07-19T06:09:52.714Z,1014.14
2018-07-19T06:10:52.207Z,1014.10
2018-07-19T06:12:49.672Z,1014.11
2018-07-19T06:13:48.687Z,1014.11
2018-07-19T06:15:45.122Z,1014.13
2018-07-19T06:16:44.144Z,1014.10
2018-07-19T06:18:40.227Z,1014.13
2018-07-19T06:19:40.095Z,1014.10
2018-07-19T06:21:36.072Z,1014.11
2018-07-19T06:22:36.063Z,1014.12
2018-07-19T06:24:30.543Z,1014.13
2018-07-19T06:25:30.516Z,1014.15
2018-07-19T06:27:27.005Z,1014.13
2018-07-19T06:28:26.531Z,1014.13
2018-07-19T06:30:22.447Z,1014.12
2018-07-19T06:31:22.978Z,1014.12
2018-07-19T06:33:16.913Z,1014.13
2018-07-19T06:34:16.918Z,1014.12
2018-07-19T06:36:13.391Z,1014.09
2018-07-19T06:37:13.375Z,1014.10
2018-07-19T06:39:08.348Z,1014.09
2018-07-19T06:40:07.339Z,1014.14
2018-07-19T06:42:04.827Z,1014.15
2018-07-19T06:43:03.406Z,1014.12
2018-07-19T06:44:59.289Z,1014.14
2018-07-19T06:45:59.782Z,1014.18
2018-07-19T06:47:54.230Z,1014.21
2018-07-19T06:48:53.713Z,1014.16
2018-07-19T06:50:48.170Z,1014.15
2018-07-19T06:51:48.161Z,1014.16
2018-07-19T06:53:42.121Z,1014.15
2018-07-19T06:54:41.615Z,1014.13
2018-07-19T06:56:39.084Z,1014.14
2018-07-19T06:57:37.659Z,1014.15
2018-07-19T06:59:32.533Z,1014.14
2018-07-19T07:00:32.025Z,1014.14
2018-07-19T07:02:27.996Z,1014.16
2018-07-19T07:03:27.994Z,1014.15
2018-07-19T07:05:24.444Z,1014.16
2018-07-19T07:06:23.941Z,1014.19
2018-07-19T07:08:20.904Z,1014.19
2018-07-19T07:09:19.923Z,1014.20
2018-07-19T07:11:14.886Z,1014.22
2018-07-19T07:12:14.392Z,1014.23
2018-07-19T07:14:08.863Z,1014.24
2018-07-19T07:15:07.836Z,1014.22
2018-07-19T07:17:03.297Z,1014.22
2018-07-19T07:18:02.315Z,1014.24
2018-07-19T07:19:58.247Z,1014.23
2018-07-19T07:20:58.767Z,1014.21
2018-07-19T07:22:52.736Z,1014.26
2018-07-19T07:23:52.734Z,1014.27
2018-07-19T07:25:47.221Z,1014.26
2018-07-19T07:26:47.195Z,1014.25
2018-07-19T07:28:42.179Z,1014.26
2018-07-19T07:29:41.673Z,1014.28
2018-07-19T07:31:37.647Z,1014.26
2018-07-19T07:32:37.624Z,1014.28
2018-07-19T07:34:34.090Z,1014.26
2018-07-19T07:35:33.592Z,1014.28
2018-07-19T07:37:29.044Z,1014.31
2018-07-19T07:38:28.540Z,1014.32
2018-07-19T07:40:22.514Z,1014.30
2018-07-19T07:41:22.513Z,1014.31
2018-07-19T07:43:17.002Z,1014.35
2018-07-19T07:44:16.986Z,1014.29
2018-07-19T07:46:12.364Z,1014.31
2018-07-19T07:47:11.452Z,1014.34
2018-07-19T07:49:05.909Z,1014.37
2018-07-19T07:50:05.908Z,1014.33
2018-07-19T07:52:01.869Z,1014.34
2018-07-19T07:53:01.864Z,1014.38
2018-07-19T07:54:56.353Z,1014.37
2018-07-19T07:55:56.313Z,1014.35
2018-07-19T07:57:51.760Z,1014.38
2018-07-19T07:58:50.778Z,1014.41
2018-07-19T08:00:46.744Z,1014.41
2018-07-19T08:01:46.746Z,1014.42
2018-07-19T08:03:44.207Z,1014.40
2018-07-19T08:04:43.208Z,1014.41
2018-07-19T08:06:37.192Z,1014.41
2018-07-19T08:07:37.174Z,1014.40
2018-07-19T08:09:31.656Z,1014.41
2018-07-19T08:10:32.653Z,1014.37
2018-07-19T08:12:28.619Z,1014.38
2018-07-19T08:13:27.630Z,1014.41
2018-07-19T08:15:22.580Z,1014.33
2018-07-19T08:16:21.053Z,1014.37
2018-07-19T08:18:16.012Z,1014.39
2018-07-19T08:19:15.511Z,1014.34
2018-07-19T08:21:09.981Z,1014.35
2018-07-19T08:22:09.986Z,1014.34
2018-07-19T08:24:04.460Z,1014.35
2018-07-19T08:25:04.491Z,1014.30
2018-07-19T08:26:58.931Z,1014.34
2018-07-19T08:27:58.916Z,1014.32
2018-07-19T08:29:53.388Z,1014.36
2018-07-19T08:30:53.365Z,1014.35
2018-07-19T08:32:49.363Z,1014.30
2018-07-19T08:33:49.831Z,1014.27
2018-07-19T08:35:45.289Z,1014.31
2018-07-19T08:36:45.803Z,1014.31
2018-07-19T08:38:41.253Z,1014.32
2018-07-19T08:39:42.236Z,1014.30
2018-07-19T08:41:37.231Z,1014.28
2018-07-19T08:42:37.212Z,1014.29
2018-07-19T08:44:31.680Z,1014.29
2018-07-19T08:45:31.678Z,1014.25
2018-07-19T08:47:27.653Z,1014.19
2018-07-19T08:48:26.151Z,1014.23
2018-07-19T08:50:20.657Z,1014.27
2018-07-19T08:51:20.632Z,1014.21
2018-07-19T08:53:15.599Z,1014.17
2018-07-19T08:54:15.098Z,1014.15
2018-07-19T08:56:11.583Z,1014.17
2018-07-19T08:57:11.085Z,1014.12
2018-07-19T08:59:07.063Z,1014.13
2018-07-19T09:00:07.065Z,1014.11
2018-07-19T09:02:03.009Z,1014.07
2018-07-19T09:03:03.028Z,1014.11
2018-07-19T09:04:58.012Z,1014.06
2018-07-19T09:05:57.451Z,1014.08
2018-07-19T09:07:53.437Z,1014.05
2018-07-19T09:08:53.437Z,1014.05
2018-07-19T09:10:50.399Z,1014.04
2018-07-19T09:11:49.901Z,1014.04
2018-07-19T09:13:43.876Z,1014.06
2018-07-19T09:14:43.863Z,1014.02
2018-07-19T09:16:40.360Z,1014.01
2018-07-19T09:17:39.845Z,1014.03
2018-07-19T09:19:33.874Z,1014.03
2018-07-19T09:20:34.243Z,1014.06
2018-07-19T09:22:29.360Z,1014.00
2018-07-19T09:23:29.364Z,1013.98
2018-07-19T09:25:26.320Z,1014.01
2018-07-19T09:26:25.826Z,1014.00
2018-07-19T09:28:22.270Z,1013.97
2018-07-19T09:29:21.302Z,1013.94
2018-07-19T09:31:18.759Z,1013.92
2018-07-19T09:32:17.765Z,1013.94
2018-07-19T09:34:13.224Z,1013.91
2018-07-19T09:35:11.718Z,1013.99
2018-07-19T09:37:06.196Z,1013.93
2018-07-19T09:38:06.197Z,1013.90
2018-07-19T09:40:02.151Z,1013.89
2018-07-19T09:41:02.151Z,1013.88
2018-07-19T09:42:59.108Z,1013.90
2018-07-19T09:43:58.127Z,1013.90
2018-07-19T09:45:54.098Z,1013.87
2018-07-19T09:46:54.102Z,1013.86
2018-07-19T09:48:47.590Z,1013.84
2018-07-19T09:49:47.544Z,1013.86
2018-07-19T09:51:42.024Z,1013.84
2018-07-19T09:52:42.022Z,1013.82
2018-07-19T09:54:36.554Z,1013.80
2018-07-19T09:55:37.487Z,1013.80
2018-07-19T09:57:32.475Z,1013.77
2018-07-19T09:58:32.452Z,1013.76
2018-07-19T10:00:25.907Z,1013.75
2018-07-19T10:01:28.349Z,1013.70
2018-07-19T10:03:21.903Z,1013.74
2018-07-19T10:04:21.894Z,1013.76
2018-07-19T10:06:16.858Z,1013.73
2018-07-19T10:07:16.364Z,1013.74
2018-07-19T10:09:10.838Z,1013.69
2018-07-19T10:10:12.770Z,1013.69
2018-07-19T10:12:04.348Z,1013.71
2018-07-19T10:13:04.301Z,1013.69
2018-07-19T10:15:00.257Z,1013.69
2018-07-19T10:16:00.262Z,1013.68
2018-07-19T10:17:55.224Z,1013.65
2018-07-19T10:18:54.717Z,1013.67
2018-07-19T10:20:48.197Z,1013.74
2018-07-19T10:21:48.177Z,1013.66
2018-07-19T10:23:44.168Z,1013.63
2018-07-19T10:24:44.146Z,1013.65
2018-07-19T10:26:40.134Z,1013.65
2018-07-19T10:27:40.117Z,1013.64
2018-07-19T10:29:34.621Z,1013.60
2018-07-19T10:30:34.576Z,1013.58
2018-07-19T10:32:29.113Z,1013.62
2018-07-19T10:33:29.064Z,1013.58
2018-07-19T10:35:22.476Z,1013.57
2018-07-19T10:36:22.516Z,1013.59
2018-07-19T10:38:18.002Z,1013.64
2018-07-19T10:39:16.979Z,1013.64
2018-07-19T10:41:12.963Z,1013.61
2018-07-19T10:43:28.894Z,1013.58
2018-07-19T10:44:28.936Z,1013.57
2018-07-19T10:46:24.904Z,1013.61
2018-07-19T10:47:24.888Z,1013.59
2018-07-19T10:49:21.351Z,1013.58
2018-07-19T10:50:20.864Z,1013.57
2018-07-19T10:52:15.340Z,1013.56
2018-07-19T10:53:15.349Z,1013.56
2018-07-19T10:55:08.763Z,1013.51
2018-07-19T10:56:08.775Z,1013.51
2018-07-19T10:58:02.260Z,1013.46
2018-07-19T10:59:02.254Z,1013.47
2018-07-19T11:00:56.722Z,1013.42
2018-07-19T11:01:56.711Z,1013.44
2018-07-19T11:03:53.686Z,1013.37
2018-07-19T11:04:52.675Z,1013.38
2018-07-19T11:06:47.141Z,1013.37
2018-07-19T11:07:46.168Z,1013.39
2018-07-19T11:09:42.638Z,1013.42
2018-07-19T11:10:42.112Z,1013.40
2018-07-19T11:12:38.115Z,1013.41
2018-07-19T11:13:38.085Z,1013.42
2018-07-19T11:15:32.584Z,1013.35
2018-07-19T11:16:32.638Z,1013.37
2018-07-19T11:18:29.017Z,1013.38
2018-07-19T11:19:28.520Z,1013.38
2018-07-19T11:21:24.492Z,1013.33
2018-07-19T11:22:25.489Z,1013.29
2018-07-19T11:24:19.473Z,1013.31
2018-07-19T11:25:18.975Z,1013.30
2018-07-19T11:27:14.955Z,1013.27
2018-07-19T11:28:14.962Z,1013.31
2018-07-19T11:30:10.962Z,1013.26
2018-07-19T11:31:10.940Z,1013.27
2018-07-19T11:33:09.495Z,1013.25
2018-07-19T11:34:09.118Z,1013.24
2018-07-19T11:36:05.571Z,1013.24
2018-07-19T11:37:05.078Z,1013.23
2018-07-19T11:39:01.540Z,1013.20
2018-07-19T11:40:01.542Z,1013.19
2018-07-19T11:41:57.499Z,1013.17
2018-07-19T11:42:57.999Z,1013.13
2018-07-19T11:44:51.436Z,1013.13
2018-07-19T11:45:51.439Z,1013.09
2018-07-19T11:47:46.912Z,1013.09
2018-07-19T11:48:45.921Z,1013.07
2018-07-19T11:50:40.359Z,1013.05
2018-07-19T11:51:40.381Z,1013.04
2018-07-19T11:53:36.364Z,1013.05
2018-07-19T11:54:34.968Z,1013.09
2018-07-19T11:56:30.429Z,1013.09
2018-07-19T11:57:29.438Z,1013.10
2018-07-19T11:59:25.930Z,1013.09
2018-07-19T12:00:25.425Z,1013.09
2018-07-19T12:02:21.408Z,1013.06
2018-07-19T12:03:21.903Z,1013.06
2018-07-19T12:05:14.875Z,1013.07
2018-07-19T12:06:14.825Z,1013.06
2018-07-19T12:08:09.305Z,1013.04
2018-07-19T12:09:09.293Z,1013.03
2018-07-19T12:11:03.797Z,1013.00
2018-07-19T12:12:04.750Z,1013.00
2018-07-19T12:13:59.735Z,1012.98
2018-07-19T12:14:59.747Z,1012.95
2018-07-19T12:16:54.213Z,1012.94
2018-07-19T12:17:54.223Z,1012.92
2018-07-19T12:19:48.680Z,1012.93
2018-07-19T12:20:48.674Z,1012.91
2018-07-19T12:22:45.659Z,1012.91
2018-07-19T12:23:44.636Z,1012.90
2018-07-19T12:25:38.076Z,1012.88
2018-07-19T12:26:38.098Z,1012.86
2018-07-19T12:28:33.050Z,1012.84
2018-07-19T12:29:33.073Z,1012.89
2018-07-19T12:31:27.511Z,1012.84
2018-07-19T12:32:27.011Z,1012.84
2018-07-19T12:34:22.981Z,1012.83
2018-07-19T12:35:22.993Z,1012.87
2018-07-19T12:37:19.466Z,1012.82
2018-07-19T12:38:18.945Z,1012.80
2018-07-19T12:40:15.424Z,1012.78
2018-07-19T12:41:14.928Z,1012.79
2018-07-19T12:43:10.396Z,1012.75
2018-07-19T12:44:09.388Z,1012.79
2018-07-19T12:46:04.384Z,1012.76
2018-07-19T12:47:03.851Z,1012.75
2018-07-19T12:49:00.851Z,1012.77
2018-07-19T12:50:00.330Z,1012.75
2018-07-19T12:51:54.332Z,1012.73
2018-07-19T12:52:54.305Z,1012.73
2018-07-19T12:54:48.720Z,1012.75
2018-07-19T12:55:48.754Z,1012.76
2018-07-19T12:57:45.705Z,1012.68
2018-07-19T12:58:44.720Z,1012.70
2018-07-19T13:00:41.687Z,1012.67
2018-07-19T13:01:40.705Z,1012.66
2018-07-19T13:03:36.679Z,1012.69
2018-07-19T13:04:36.674Z,1012.68
2018-07-19T13:06:32.658Z,1012.70
2018-07-19T13:07:32.670Z,1012.64
2018-07-19T13:09:26.134Z,1012.69
2018-07-19T13:10:26.138Z,1012.63
2018-07-19T13:12:24.077Z,1012.64
2018-07-19T13:13:24.090Z,1012.63
2018-07-19T13:15:20.072Z,1012.63
2018-07-19T13:16:20.049Z,1012.66
2018-07-19T13:18:16.075Z,1012.65
2018-07-19T13:19:16.037Z,1012.61
2018-07-19T13:21:12.509Z,1012.63
2018-07-19T13:22:12.547Z,1012.65
2018-07-19T13:24:08.983Z,1012.60
2018-07-19T13:25:08.966Z,1012.66
2018-07-19T13:27:04.467Z,1012.61
2018-07-19T13:28:03.986Z,1012.65
2018-07-19T13:29:59.956Z,1012.60
2018-07-19T13:30:59.955Z,1012.64
2018-07-19T13:32:58.421Z,1012.58
2018-07-19T13:33:58.927Z,1012.57
2018-07-19T13:35:54.417Z,1012.57
2018-07-19T13:36:53.971Z,1012.56
2018-07-19T13:38:50.401Z,1012.55
2018-07-19T13:39:49.876Z,1012.50
2018-07-19T13:41:46.335Z,1012.51
2018-07-19T13:42:45.873Z,1012.50
2018-07-19T13:44:44.051Z,1012.50
2018-07-19T13:45:41.869Z,1012.47
2018-07-19T13:47:38.332Z,1012.47
2018-07-19T13:48:37.857Z,1012.51
2018-07-19T13:50:31.352Z,1012.49
2018-07-19T13:51:32.310Z,1012.53
2018-07-19T13:53:26.310Z,1012.43
2018-07-19T13:54:25.826Z,1012.42
2018-07-19T13:56:22.298Z,1012.43
2018-07-19T13:57:22.285Z,1012.42
2018-07-19T13:59:16.279Z,1012.41
2018-07-19T14:00:16.271Z,1012.39
2018-07-19T14:02:14.235Z,1012.42
2018-07-19T14:03:12.237Z,1012.38
2018-07-19T14:05:08.210Z,1012.36
2018-07-19T14:06:06.697Z,1012.38
2018-07-19T14:08:02.650Z,1012.38
2018-07-19T14:09:02.674Z,1012.35
2018-07-19T14:10:59.644Z,1012.35
2018-07-19T14:11:58.666Z,1012.29
2018-07-19T14:13:54.656Z,1012.24
2018-07-19T14:14:54.644Z,1012.25
2018-07-19T14:16:54.119Z,1012.20
2018-07-19T14:17:54.547Z,1012.22
2018-07-19T14:19:49.260Z,1012.23
2018-07-19T14:20:48.762Z,1012.21
2018-07-19T14:22:45.237Z,1012.24
2018-07-19T14:23:44.755Z,1012.21
2018-07-19T14:25:38.731Z,1012.17
2018-07-19T14:26:38.180Z,1012.18
2018-07-19T14:28:31.647Z,1012.24
2018-07-19T14:29:31.655Z,1012.25
2018-07-19T14:31:27.664Z,1012.27
2018-07-19T14:32:27.643Z,1012.26
2018-07-19T14:34:23.634Z,1012.24
2018-07-19T14:35:23.606Z,1012.24
2018-07-19T14:37:20.106Z,1012.22
2018-07-19T14:38:19.594Z,1012.20
2018-07-19T14:40:15.565Z,1012.21
2018-07-19T14:41:16.062Z,1012.20
2018-07-19T14:43:09.523Z,1012.19
2018-07-19T14:44:09.020Z,1012.17
2018-07-19T14:46:05.986Z,1012.14
2018-07-19T14:47:05.009Z,1012.11
2018-07-19T14:48:58.450Z,1012.11
2018-07-19T14:49:58.459Z,1012.06
2018-07-19T14:51:51.965Z,1012.07
2018-07-19T14:52:51.925Z,1012.03
2018-07-19T14:54:47.899Z,1012.03
2018-07-19T14:55:48.829Z,1012.03
2018-07-19T14:57:43.865Z,1011.99
2018-07-19T14:58:43.888Z,1012.00
2018-07-19T15:00:39.860Z,1011.95
2018-07-19T15:01:39.854Z,1011.96
2018-07-19T15:03:34.324Z,1011.91
2018-07-19T15:04:33.323Z,1011.90
2018-07-19T15:06:30.309Z,1011.89
2018-07-19T15:07:29.347Z,1011.88
2018-07-19T15:09:24.286Z,1011.91
2018-07-19T15:10:23.771Z,1011.85
2018-07-19T15:12:17.210Z,1011.85
2018-07-19T15:13:17.731Z,1011.76
2018-07-19T15:15:13.723Z,1011.74
2018-07-19T15:16:13.186Z,1011.74
2018-07-19T15:18:10.131Z,1011.70
2018-07-19T15:19:09.153Z,1011.71
2018-07-19T15:21:05.123Z,1011.74
2018-07-19T15:22:05.137Z,1011.73
2018-07-19T15:24:01.126Z,1011.75
2018-07-19T15:25:01.151Z,1011.75
2018-07-19T15:26:55.582Z,1011.71
2018-07-19T15:27:55.610Z,1011.72
2018-07-19T15:29:50.593Z,1011.64
2018-07-19T15:30:50.103Z,1011.64
2018-07-19T15:32:46.102Z,1011.61
2018-07-19T15:33:46.572Z,1011.62
2018-07-19T15:35:43.022Z,1011.56
2018-07-19T15:36:43.006Z,1011.56
2018-07-19T15:38:40.996Z,1011.53
2018-07-19T15:39:42.009Z,1011.54
2018-07-19T15:41:37.981Z,1011.43
2018-07-19T15:42:37.046Z,1011.44
2018-07-19T15:44:33.521Z,1011.43
2018-07-19T15:45:33.040Z,1011.44
2018-07-19T15:47:29.010Z,1011.47
2018-07-19T15:48:28.989Z,1011.47
2018-07-19T15:50:23.490Z,1011.43
2018-07-19T15:51:23.468Z,1011.50
2018-07-19T15:53:18.448Z,1011.46
2018-07-19T15:54:17.935Z,1011.42
2018-07-19T15:56:13.898Z,1011.45
2018-07-19T15:57:13.901Z,1011.39
2018-07-19T15:59:12.059Z,1011.48
2018-07-19T16:00:12.091Z,1011.53
2018-07-19T16:02:08.586Z,1011.43
2018-07-19T16:03:08.061Z,1011.46
2018-07-19T16:05:04.006Z,1011.42
2018-07-19T16:06:04.025Z,1011.44
2018-07-19T16:08:00.484Z,1011.39
2018-07-19T16:08:59.977Z,1011.40
2018-07-19T16:10:55.965Z,1011.37
2018-07-19T16:11:55.967Z,1011.38
2018-07-19T16:13:53.465Z,1011.36
2018-07-19T16:14:51.926Z,1011.38
2018-07-19T16:16:47.906Z,1011.34
2018-07-19T16:17:47.921Z,1011.35
2018-07-19T16:19:44.383Z,1011.32
2018-07-19T16:20:43.896Z,1011.35
2018-07-19T16:22:40.377Z,1011.32
2018-07-19T16:23:39.891Z,1011.28
2018-07-19T16:25:34.365Z,1011.27
2018-07-19T16:26:34.374Z,1011.26
2018-07-19T16:28:28.856Z,1011.24
2018-07-19T16:29:28.907Z,1011.21
2018-07-19T16:31:24.825Z,1011.21
2018-07-19T16:32:25.869Z,1011.24
2018-07-19T16:34:21.318Z,1011.21
2018-07-19T16:35:20.808Z,1011.21
2018-07-19T16:37:17.283Z,1011.21
2018-07-19T16:38:17.289Z,1011.23
2018-07-19T16:40:12.766Z,1011.18
2018-07-19T16:41:13.744Z,1011.16
2018-07-19T16:43:08.753Z,1011.17
2018-07-19T16:44:09.251Z,1011.18
2018-07-19T16:46:04.687Z,1011.12
2018-07-19T16:47:04.708Z,1011.15
2018-07-19T16:49:00.666Z,1011.13
2018-07-19T16:50:00.669Z,1011.12
2018-07-19T16:51:56.630Z,1011.13
2018-07-19T16:52:57.640Z,1011.10
2018-07-19T16:54:51.106Z,1011.04
2018-07-19T16:55:51.107Z,1011.05
2018-07-19T16:57:47.069Z,1010.99
2018-07-19T16:58:45.570Z,1011.04
2018-07-19T17:00:41.547Z,1011.03
2018-07-19T17:01:41.523Z,1011.00
2018-07-19T17:03:37.993Z,1011.00
2018-07-19T17:04:37.514Z,1010.99
2018-07-19T17:06:33.509Z,1011.01
2018-07-19T17:07:34.476Z,1010.95
2018-07-19T17:09:29.497Z,1010.98
2018-07-19T17:10:29.487Z,1011.00
2018-07-19T17:12:23.949Z,1010.99
2018-07-19T17:13:23.964Z,1011.00
2018-07-19T17:15:20.418Z,1011.00
2018-07-19T17:16:20.854Z,1010.95
2018-07-19T17:18:16.408Z,1010.95
2018-07-19T17:19:15.884Z,1010.94
2018-07-19T17:21:09.334Z,1010.91
2018-07-19T17:22:10.334Z,1010.95
2018-07-19T17:24:06.308Z,1010.96
2018-07-19T17:25:05.312Z,1010.92
2018-07-19T17:27:01.311Z,1010.93
2018-07-19T17:28:02.289Z,1010.97
2018-07-19T17:30:00.267Z,1010.92
2018-07-19T17:30:59.259Z,1010.94
2018-07-19T17:32:55.760Z,1010.97
2018-07-19T17:33:56.240Z,1010.96
2018-07-19T17:35:51.716Z,1010.95
2018-07-19T17:36:51.234Z,1010.96
2018-07-19T17:38:47.702Z,1011.00
2018-07-19T17:39:47.205Z,1011.02
2018-07-19T17:41:43.189Z,1010.99